Time;durP1;ratioP1;P1;durP2;ratioP2;P2;SDS_P1;SDS_P2;PMS_P1;PMS_P2;Temp;Humidity;BMP_temperature;BMP_pressure;BME280_temperature;BME280_humidity;BME280_pressure;Samples;Min_cycle;Max_cycle;Signal;HPM_P1;HPM_P2
2022/07/05 00:01:16;;;;;;;1.88;0.90;;;;;;;19.20;45.74;100302.47;4972232;28;20068;-60
2022/07/05 00:03:43;;;;;;;3.60;0.80;;;;;;;19.19;46.00;100307.94;4971716;28;20058;-62
2022/07/05 00:06:10;;;;;;;2.67;0.90;;;;;;;19.19;46.12;100307.94;4972357;28;20478;-60
2022/07/05 00:08:37;;;;;;;3.70;0.90;;;;;;;19.17;46.47;100309.91;4971502;28;20419;-59
2022/07/05 00:11:04;;;;;;;21.20;2.53;;;;;;;19.18;46.89;100306.25;4954734;28;20046;-60
2022/07/05 00:13:31;;;;;;;7.78;1.27;;;;;;;19.19;46.48;100306.13;4971736;28;20086;-61
2022/07/05 00:15:57;;;;;;;2.88;0.80;;;;;;;19.20;46.62;100301.63;4971790;28;20178;-61
2022/07/05 00:18:24;;;;;;;1.50;0.73;;;;;;;19.22;46.43;100305.84;4971534;28;20050;-62
2022/07/05 00:20:50;;;;;;;3.22;0.90;;;;;;;19.23;46.49;100299.56;4971617;28;20057;-61
2022/07/05 00:23:17;;;;;;;5.68;1.23;;;;;;;19.25;46.70;100296.75;4971893;28;20066;-60
2022/07/05 00:25:45;;;;;;;5.50;1.55;;;;;;;19.26;47.00;100298.44;4971856;28;20145;-61
2022/07/05 00:28:13;;;;;;;4.75;1.20;;;;;;;19.29;46.97;100300.00;4971579;28;20166;-62
2022/07/05 00:30:40;;;;;;;5.07;1.00;;;;;;;19.29;46.75;100300.00;4954313;28;20054;-61
2022/07/05 00:33:07;;;;;;;2.80;1.08;;;;;;;19.27;46.83;100300.97;4971325;28;20050;-62
2022/07/05 00:35:33;;;;;;;1.83;0.80;;;;;;;19.26;46.36;100304.59;4971764;28;20102;-61
2022/07/05 00:38:00;;;;;;;3.22;1.00;;;;;;;19.25;46.44;100296.75;4971597;28;20058;-62
2022/07/05 00:40:26;;;;;;;2.67;0.95;;;;;;;19.22;46.77;100295.16;4971517;28;20055;-59
2022/07/05 00:42:53;;;;;;;2.03;1.27;;;;;;;19.21;46.06;100303.31;4971598;28;20058;-60
2022/07/05 00:45:21;;;;;;;4.32;1.50;;;;;;;19.19;47.04;100302.59;4971393;28;20046;-61
2022/07/05 00:47:47;;;;;;;3.92;1.20;;;;;;;19.17;47.06;100304.56;4971352;28;20047;-62
2022/07/05 00:50:14;;;;;;;9.32;1.55;;;;;;;19.15;46.91;100318.03;4971200;28;20451;-61
2022/07/05 00:52:40;;;;;;;2.97;1.05;;;;;;;19.10;46.98;100305.06;4971516;28;20093;-60
2022/07/05 00:55:08;;;;;;;6.25;1.00;;;;;;;19.08;46.84;100308.84;4971561;28;20467;-60
2022/07/05 00:57:35;;;;;;;2.58;1.23;;;;;;;19.06;47.50;100313.47;4954243;28;20059;-61
2022/07/05 01:00:03;;;;;;;4.97;1.00;;;;;;;19.00;47.49;100309.47;4974851;28;20089;-62
2022/07/05 01:02:30;;;;;;;3.80;1.08;;;;;;;18.98;47.50;100304.25;4958017;28;20054;-61
2022/07/05 01:04:57;;;;;;;4.25;1.00;;;;;;;18.95;47.28;100312.50;4957910;28;20078;-63
2022/07/05 01:07:25;;;;;;;8.02;1.40;;;;;;;18.94;47.70;100309.97;4975067;28;20062;-61
2022/07/05 01:09:52;;;;;;;4.50;1.42;;;;;;;18.91;47.33;100311.06;4974757;28;20066;-62
2022/07/05 01:12:19;;;;;;;3.03;0.95;;;;;;;18.91;46.88;100313.75;4975002;28;20142;-62
2022/07/05 01:14:46;;;;;;;3.38;1.17;;;;;;;18.89;47.46;100307.69;4974879;28;20051;-61
2022/07/05 01:17:14;;;;;;;5.63;1.25;;;;;;;18.87;47.24;100310.50;4974702;28;20137;-61
2022/07/05 01:19:41;;;;;;;4.75;1.20;;;;;;;18.85;47.42;100304.44;4957467;28;20057;-61
2022/07/05 01:22:15;;;;;;;11.68;1.20;;;;;;;18.80;48.61;100309.31;4974791;28;20051;-61
2022/07/05 01:24:42;;;;;;;6.60;1.58;;;;;;;18.80;47.75;100303.97;4957861;28;20538;-60
2022/07/05 01:27:13;;;;;;;2.17;0.93;;;;;;;18.76;47.66;100313.19;4974581;28;20106;-60
2022/07/05 01:29:41;;;;;;;3.55;1.20;;;;;;;18.73;47.92;100302.81;4974588;28;20082;-62
2022/07/05 01:32:08;;;;;;;13.27;2.25;;;;;;;18.71;47.88;100302.94;4974703;28;20050;-61
2022/07/05 01:34:38;;;;;;;6.40;1.50;;;;;;;18.66;48.38;100299.81;4974448;28;20055;-60
2022/07/05 01:37:06;;;;;;;2.30;1.02;;;;;;;18.65;47.92;100305.25;4974446;28;20585;-63
2022/07/05 01:39:33;;;;;;;1.85;1.00;;;;;;;18.62;47.83;100296.53;4973926;28;20130;-62
2022/07/05 01:42:01;;;;;;;1.80;1.08;;;;;;;18.60;48.23;100303.81;4974034;28;20077;-59
2022/07/05 01:44:30;;;;;;;3.55;1.10;;;;;;;18.58;48.13;100303.06;4957380;28;20050;-59
2022/07/05 01:47:02;;;;;;;7.63;1.40;;;;;;;18.57;48.68;100298.72;4973975;28;20055;-59
2022/07/05 01:49:33;;;;;;;2.13;1.00;;;;;;;18.56;48.76;100306.84;4956862;28;20069;-61
2022/07/05 01:52:06;;;;;;;2.00;1.00;;;;;;;18.53;49.35;100302.63;4974072;28;20050;-61
2022/07/05 01:54:33;;;;;;;1.20;0.90;;;;;;;18.53;48.64;100310.63;4956909;28;20051;-63
2022/07/05 01:57:00;;;;;;;3.97;1.00;;;;;;;18.51;48.62;100309.03;4974018;28;20051;-61
2022/07/05 01:59:32;;;;;;;2.55;1.10;;;;;;;18.45;49.02;100305.06;4973967;28;20058;-61
2022/07/05 02:01:59;;;;;;;1.75;1.08;;;;;;;18.42;48.29;100306.16;4973923;28;20455;-60
2022/07/05 02:04:26;;;;;;;3.22;1.10;;;;;;;18.40;48.41;100301.94;4973681;28;20066;-62
2022/07/05 02:06:53;;;;;;;2.80;1.00;;;;;;;18.36;48.78;100299.50;4973446;28;20113;-61
2022/07/05 02:09:19;;;;;;;3.65;1.40;;;;;;;18.33;48.96;100299.78;4972924;28;20519;-59
2022/07/05 02:11:46;;;;;;;3.65;1.38;;;;;;;18.32;49.28;100305.22;4973815;28;20088;-62
2022/07/05 02:14:12;;;;;;;1.42;1.02;;;;;;;18.30;49.10;100308.00;4973490;28;20154;-61
2022/07/05 02:16:39;;;;;;;2.13;1.17;;;;;;;18.29;49.28;100311.66;4973648;28;20051;-61
2022/07/05 02:19:06;;;;;;;3.22;1.10;;;;;;;18.27;49.62;100300.25;4973122;28;20084;-64
2022/07/05 02:21:32;;;;;;;3.30;1.00;;;;;;;18.26;49.64;100298.56;4956616;28;20058;-61
2022/07/05 02:23:59;;;;;;;3.42;1.33;;;;;;;18.25;49.52;100304.88;4973343;28;20507;-60
2022/07/05 02:26:25;;;;;;;4.38;1.30;;;;;;;18.23;49.84;100302.34;4973657;28;20073;-60
2022/07/05 02:28:52;;;;;;;5.63;1.40;;;;;;;18.23;49.66;100306.81;4973348;28;20050;-62
2022/07/05 02:31:20;;;;;;;2.05;1.13;;;;;;;18.22;49.99;100305.97;4973592;28;20106;-60
2022/07/05 02:33:46;;;;;;;1.23;1.00;;;;;;;18.19;49.72;100310.69;4972949;28;20058;-62
2022/07/05 02:36:13;;;;;;;1.85;1.30;;;;;;;18.17;49.94;100307.31;4973612;28;20094;-62
2022/07/05 02:38:40;;;;;;;3.47;1.10;;;;;;;18.16;49.82;100302.97;4973175;28;20047;-59
2022/07/05 02:41:08;;;;;;;6.05;1.30;;;;;;;18.15;49.99;100303.91;4973263;28;20059;-61
2022/07/05 02:43:35;;;;;;;1.23;1.08;;;;;;;18.12;49.93;100304.19;4973337;28;20078;-60
2022/07/05 02:46:03;;;;;;;1.30;1.00;;;;;;;18.10;50.11;100312.28;4973178;28;20569;-60
2022/07/05 02:48:31;;;;;;;3.28;1.50;;;;;;;18.10;50.43;100317.63;4955695;28;20065;-59
2022/07/05 02:50:58;;;;;;;2.38;1.10;;;;;;;18.08;50.15;100307.06;4956178;28;20065;-60
2022/07/05 02:53:25;;;;;;;4.93;1.05;;;;;;;18.09;50.42;100308.75;4973043;28;20495;-63
2022/07/05 02:55:51;;;;;;;5.07;1.20;;;;;;;18.09;50.58;100314.09;4972932;28;20492;-59
2022/07/05 02:58:18;;;;;;;3.83;1.27;;;;;;;18.09;50.55;100319.41;4972730;28;20062;-61
2022/07/05 03:00:48;;;;;;;2.83;1.00;;;;;;;18.10;50.72;100317.63;4973017;28;20054;-60
2022/07/05 03:03:15;;;;;;;3.13;1.20;;;;;;;18.10;50.63;100318.44;4972800;28;20061;-62
2022/07/05 03:05:43;;;;;;;2.50;1.27;;;;;;;18.09;50.73;100319.41;4972791;28;20126;-59
2022/07/05 03:08:09;;;;;;;2.42;1.00;;;;;;;18.09;50.30;100324.75;4972837;28;20057;-60
2022/07/05 03:10:36;;;;;;;3.15;1.30;;;;;;;18.08;50.14;100325.72;4972592;28;20060;-60
2022/07/05 03:13:03;;;;;;;3.63;1.60;;;;;;;18.06;50.27;100322.28;4972623;28;20050;-63
2022/07/05 03:15:30;;;;;;;6.05;1.90;;;;;;;18.06;50.38;100322.28;4972473;28;20058;-59
2022/07/05 03:17:57;;;;;;;2.90;1.77;;;;;;;18.07;50.46;100331.13;4972589;28;20054;-60
2022/07/05 03:20:24;;;;;;;4.18;1.77;;;;;;;18.07;50.31;100328.47;4972279;28;20053;-60
2022/07/05 03:22:50;;;;;;;8.40;2.33;;;;;;;18.07;50.66;100329.34;4972565;28;20062;-60
2022/07/05 03:25:17;;;;;;;7.43;2.00;;;;;;;18.08;50.68;100323.06;4972393;28;20594;-61
2022/07/05 03:27:44;;;;;;;9.55;1.88;;;;;;;18.09;50.75;100324.75;4972491;28;20146;-62
2022/07/05 03:30:11;;;;;;;3.20;1.60;;;;;;;18.10;50.67;100323.78;4971964;28;20050;-61
2022/07/05 03:32:38;;;;;;;6.70;1.63;;;;;;;18.10;50.83;100326.44;4972000;28;20055;-61
2022/07/05 03:35:05;;;;;;;3.92;1.75;;;;;;;18.09;50.83;100327.41;4972299;28;20056;-59
2022/07/05 03:37:31;;;;;;;2.40;1.60;;;;;;;18.08;50.52;100328.38;4972298;28;20074;-60
2022/07/05 03:39:58;;;;;;;9.73;2.10;;;;;;;18.07;50.66;100326.66;4954597;28;20537;-60
2022/07/05 03:42:25;;;;;;;2.97;1.80;;;;;;;18.06;50.59;100335.59;4954958;28;20174;-60
2022/07/05 03:44:51;;;;;;;5.90;1.88;;;;;;;18.07;50.61;100341.78;4972125;28;20142;-59
2022/07/05 03:47:20;;;;;;;5.10;1.80;;;;;;;18.04;50.55;100342.03;4972003;28;20050;-61
2022/07/05 03:49:46;;;;;;;2.10;1.80;;;;;;;18.01;50.61;100343.13;4971795;28;20495;-61
2022/07/05 03:52:14;;;;;;;2.10;1.83;;;;;;;18.01;50.56;100343.13;4972021;28;20055;-62
2022/07/05 03:54:40;;;;;;;5.45;2.03;;;;;;;17.99;50.74;100337.09;4971810;28;20057;-60
2022/07/05 03:57:07;;;;;;;2.13;1.52;;;;;;;17.99;50.71;100342.41;4971815;28;20479;-59
2022/07/05 03:59:34;;;;;;;4.32;2.00;;;;;;;18.00;50.50;100340.56;4971643;28;20054;-59
2022/07/05 04:02:00;;;;;;;3.30;1.77;;;;;;;17.98;50.69;100338.03;4971687;28;20074;-61
2022/07/05 04:04:27;;;;;;;3.08;1.85;;;;;;;17.97;50.68;100339.88;4971951;28;20050;-59
2022/07/05 04:06:54;;;;;;;5.15;1.75;;;;;;;17.97;50.72;100339.00;4971752;28;20059;-60
2022/07/05 04:09:21;;;;;;;3.05;1.50;;;;;;;17.96;50.71;100343.50;4971789;28;20047;-59
2022/07/05 04:11:47;;;;;;;1.77;1.30;;;;;;;17.96;50.65;100340.84;4971711;28;20446;-62
2022/07/05 04:14:14;;;;;;;3.10;1.40;;;;;;;17.96;50.32;100342.66;4971700;28;20063;-60
2022/07/05 04:16:41;;;;;;;5.88;1.80;;;;;;;17.96;50.50;100345.31;4971513;28;20487;-61
2022/07/05 04:19:08;;;;;;;3.42;1.75;;;;;;;17.94;50.71;100342.75;4971766;28;20058;-61
2022/07/05 04:21:34;;;;;;;3.67;1.33;;;;;;;17.93;50.63;100346.41;4971706;28;20050;-63
2022/07/05 04:24:01;;;;;;;1.58;1.15;;;;;;;17.92;51.03;100347.38;4971633;28;20057;-59
2022/07/05 04:26:28;;;;;;;3.67;1.77;;;;;;;17.93;50.93;100351.72;4971482;28;20138;-59
2022/07/05 04:28:55;;;;;;;1.63;1.27;;;;;;;17.95;50.94;100354.28;4972063;28;20051;-60
2022/07/05 04:31:23;;;;;;;4.22;1.60;;;;;;;17.95;50.87;100352.44;4971793;28;20423;-62
2022/07/05 04:33:50;;;;;;;2.40;1.15;;;;;;;17.96;50.94;100361.28;4973701;28;20082;-60
2022/07/05 04:36:17;;;;;;;4.32;1.42;;;;;;;17.97;51.10;100360.31;4975528;28;20053;-62
2022/07/05 04:38:44;;;;;;;3.38;1.75;;;;;;;17.98;50.98;100354.00;4975371;28;20055;-60
2022/07/05 04:41:10;;;;;;;2.42;1.35;;;;;;;17.99;50.91;100358.41;4975471;28;20054;-60
2022/07/05 04:43:37;;;;;;;4.63;1.60;;;;;;;17.99;51.08;100355.72;4975168;28;20055;-63
2022/07/05 04:46:04;;;;;;;2.47;1.30;;;;;;;17.99;51.16;100355.72;4975778;28;20054;-60
2022/07/05 04:48:31;;;;;;;4.00;1.85;;;;;;;18.00;51.20;100357.41;4975248;28;20146;-62
2022/07/05 04:50:57;;;;;;;2.50;1.48;;;;;;;17.99;51.05;100366.38;4958363;28;20053;-60
2022/07/05 04:53:24;;;;;;;3.63;1.48;;;;;;;17.98;51.28;100362.88;4975228;28;20513;-60
2022/07/05 04:55:51;;;;;;;5.47;1.30;;;;;;;17.96;51.15;100359.50;4975535;28;20054;-59
2022/07/05 04:58:18;;;;;;;4.10;1.63;;;;;;;17.96;51.50;100358.63;4975080;28;20050;-60
2022/07/05 05:00:44;;;;;;;2.28;1.42;;;;;;;17.97;51.75;100362.97;4974038;28;20272;-60
2022/07/05 05:03:11;;;;;;;2.65;1.35;;;;;;;17.98;52.01;100360.19;4974981;28;20043;-59
2022/07/05 05:05:38;;;;;;;4.68;1.70;;;;;;;18.03;51.90;100361.66;4958080;28;20422;-61
2022/07/05 05:08:05;;;;;;;3.08;1.50;;;;;;;18.05;52.16;100363.22;4974825;28;20059;-60
2022/07/05 05:10:32;;;;;;;2.70;1.60;;;;;;;18.10;52.12;100366.41;4975054;28;20051;-60
2022/07/05 05:12:59;;;;;;;3.75;1.30;;;;;;;18.17;52.65;100369.41;4975137;28;20047;-61
2022/07/05 05:15:25;;;;;;;3.92;1.45;;;;;;;18.24;52.54;100361.78;4975035;28;20062;-63
2022/07/05 05:17:52;;;;;;;2.17;1.30;;;;;;;18.32;52.54;100369.19;4974803;28;20089;-61
2022/07/05 05:20:19;;;;;;;2.67;1.30;;;;;;;18.38;52.56;100374.00;4974624;28;20101;-61
2022/07/05 05:22:46;;;;;;;4.28;1.70;;;;;;;18.49;52.94;100370.47;4957386;28;20392;-62
2022/07/05 05:25:13;;;;;;;6.18;1.40;;;;;;;18.59;52.53;100381.25;4974539;28;20050;-60
2022/07/05 05:27:45;;;;;;;3.88;1.42;;;;;;;18.69;52.74;100373.34;4974438;28;20058;-63
2022/07/05 05:30:16;;;;;;;7.97;1.50;;;;;;;18.80;52.48;100375.16;4974456;28;20146;-62
2022/07/05 05:32:43;;;;;;;4.55;1.40;;;;;;;18.89;52.75;100377.06;4957331;28;20054;-61
2022/07/05 05:35:10;;;;;;;5.35;1.70;;;;;;;18.95;52.31;100376.53;4974808;28;20450;-60
2022/07/05 05:37:47;;;;;;;3.53;1.45;;;;;;;18.98;52.18;100376.28;4974451;28;20046;-62
2022/07/05 05:40:14;;;;;;;1.73;1.13;;;;;;;19.05;51.71;100382.00;4974403;28;20055;-60
2022/07/05 05:42:40;;;;;;;2.10;1.10;;;;;;;19.08;51.56;100380.88;4974544;28;20043;-63
2022/07/05 05:45:08;;;;;;;1.83;1.30;;;;;;;19.09;51.46;100388.75;4973786;28;20105;-61
2022/07/05 05:47:49;;;;;;;3.03;1.42;;;;;;;19.08;52.06;100388.88;4957233;28;20046;-62
2022/07/05 05:50:25;;;;;;;2.83;1.40;;;;;;;19.10;51.91;100387.78;4973986;28;20104;-61
2022/07/05 05:52:52;;;;;;;5.47;1.50;;;;;;;19.16;51.79;100386.44;4974413;28;20058;-60
2022/07/05 05:55:20;;;;;;;2.20;1.35;;;;;;;19.19;51.36;100393.34;4973977;28;20051;-62
2022/07/05 05:57:48;;;;;;;4.20;1.30;;;;;;;19.22;51.54;100393.09;4973985;28;20061;-62
2022/07/05 06:00:16;;;;;;;4.78;1.58;;;;;;;19.23;51.47;100392.97;4973757;28;20066;-60
2022/07/05 06:02:44;;;;;;;2.33;1.20;;;;;;;19.26;51.18;100400.69;4956847;28;20066;-61
2022/07/05 06:05:10;;;;;;;2.17;1.23;;;;;;;19.30;51.37;100401.31;4974121;28;20100;-61
2022/07/05 06:07:49;;;;;;;4.28;1.20;;;;;;;19.31;51.26;100410.13;4974017;28;20054;-60
2022/07/05 06:10:19;;;;;;;2.83;1.50;;;;;;;19.39;51.08;100405.84;4973715;28;20070;-64
2022/07/05 06:12:46;;;;;;;5.15;1.35;;;;;;;19.47;51.47;100404.38;4974322;28;20114;-60
2022/07/05 06:15:13;;;;;;;3.10;1.27;;;;;;;19.54;51.19;100408.19;4973784;28;20050;-60
2022/07/05 06:17:40;;;;;;;2.65;1.08;;;;;;;19.64;51.25;100410.94;4973880;28;20107;-62
2022/07/05 06:20:14;;;;;;;1.63;1.20;;;;;;;19.73;50.89;100407.47;4956485;28;20074;-60
2022/07/05 06:22:41;;;;;;;3.20;1.23;;;;;;;19.87;51.21;100413.47;4973818;28;20500;-62
2022/07/05 06:25:08;;;;;;;3.88;1.50;;;;;;;19.96;51.08;100412.66;4973246;28;20397;-61
2022/07/05 06:27:50;;;;;;;2.53;1.30;;;;;;;20.08;50.71;100409.94;4973798;28;20055;-60
2022/07/05 06:30:19;;;;;;;2.05;1.45;;;;;;;20.18;50.75;100413.50;4973213;28;20050;-62
2022/07/05 06:32:48;;;;;;;3.13;1.30;;;;;;;20.28;50.45;100419.75;4973452;28;20466;-61
2022/07/05 06:35:15;;;;;;;2.65;1.40;;;;;;;20.35;50.18;100417.38;4956132;28;20424;-61
2022/07/05 06:37:53;;;;;;;4.78;1.50;;;;;;;20.40;49.90;100420.47;4956021;28;20094;-64
2022/07/05 06:40:27;;;;;;;2.65;1.42;;;;;;;20.50;49.90;100419.66;4972989;28;20101;-62
2022/07/05 06:42:56;;;;;;;3.35;1.48;;;;;;;20.54;49.86;100415.75;4956216;28;20066;-61
2022/07/05 06:45:24;;;;;;;5.15;1.38;;;;;;;20.60;49.87;100419.69;4956024;28;20124;-60
2022/07/05 06:48:11;;;;;;;5.63;1.42;;;;;;;20.60;49.47;100422.38;4955995;28;20061;-61
2022/07/05 06:50:40;;;;;;;4.15;1.67;;;;;;;20.69;49.23;100419.72;4973299;28;20054;-62
2022/07/05 06:53:07;;;;;;;3.88;1.20;;;;;;;;;;4973380;28;20059;-60
2022/07/05 06:55:34;;;;;;;4.40;1.55;;;;;;;20.79;49.25;100419.72;4972172;28;20051;-62
2022/07/05 06:58:06;;;;;;;3.33;1.70;;;;;;;20.84;48.91;100422.00;4972853;28;20735;-60
2022/07/05 07:00:38;;;;;;;4.70;1.90;;;;;;;20.87;48.85;100421.75;4973043;28;20058;-61
2022/07/05 07:03:25;;;;;;;3.10;1.50;;;;;;;20.92;48.54;100418.66;4972647;28;20098;-59
2022/07/05 07:06:11;;;;;;;2.72;1.50;;;;;;;20.94;48.41;100417.53;4972582;28;20055;-62
2022/07/05 07:11:23;;;;;;;2.13;1.48;;;;;;;20.93;47.91;100431.91;4973005;28;20463;-61
2022/07/05 07:13:50;;;;;;;1.42;1.20;;;;;;;20.90;47.28;100424.13;4972757;28;20054;-61
2022/07/05 07:16:16;;;;;;;2.33;1.27;;;;;;;20.89;47.59;100440.34;4972789;28;20058;-61
2022/07/05 07:18:43;;;;;;;2.88;1.30;;;;;;;20.85;47.85;100434.38;4972620;28;20058;-61
2022/07/05 07:21:29;;;;;;;2.17;1.42;;;;;;;20.83;47.23;100420.31;4972761;28;20125;-63
2022/07/05 07:23:56;;;;;;;1.85;1.25;;;;;;;20.83;47.48;100431.00;4972898;28;20047;-60
2022/07/05 07:26:22;;;;;;;2.10;1.20;;;;;;;20.82;47.62;100429.34;4972423;28;20062;-63
2022/07/05 07:28:49;;;;;;;2.08;1.40;;;;;;;20.82;47.11;100430.16;4972351;28;20047;-60
2022/07/05 07:31:16;;;;;;;2.85;1.10;;;;;;;20.83;46.92;100436.38;4972702;28;20050;-61
2022/07/05 07:33:42;;;;;;;3.67;1.55;;;;;;;20.85;46.76;100445.09;4972040;28;20135;-60
2022/07/05 07:36:10;;;;;;;1.20;1.08;;;;;;;20.87;46.79;100445.84;4972668;28;20086;-61
2022/07/05 07:38:41;;;;;;;3.30;1.30;;;;;;;20.89;46.64;100441.19;4972201;28;20058;-64
2022/07/05 07:41:07;;;;;;;3.10;1.10;;;;;;;20.93;46.45;100442.59;4972344;28;20062;-61
2022/07/05 07:43:34;;;;;;;2.50;1.08;;;;;;;20.98;46.02;100439.53;4972218;28;20105;-60
2022/07/05 07:46:00;;;;;;;2.13;1.10;;;;;;;21.02;46.01;100443.63;4972222;28;20121;-61
2022/07/05 07:48:28;;;;;;;1.23;0.82;;;;;;;21.05;45.47;100437.97;4971982;28;20503;-62
2022/07/05 07:50:55;;;;;;;2.08;0.90;;;;;;;21.09;45.82;100436.69;4955023;28;20082;-62
2022/07/05 07:53:22;;;;;;;1.33;0.73;;;;;;;21.16;45.41;100441.50;4971961;28;20106;-60
2022/07/05 07:55:49;;;;;;;2.30;0.90;;;;;;;21.21;45.19;100433.91;4972183;28;20058;-61
2022/07/05 07:58:15;;;;;;;1.90;1.02;;;;;;;21.28;45.15;100439.53;4971837;28;20511;-62
2022/07/05 08:00:42;;;;;;;1.88;1.00;;;;;;;21.34;44.81;100439.81;4955048;28;20050;-63
2022/07/05 08:03:09;;;;;;;1.30;0.85;;;;;;;21.41;44.49;100434.72;4971796;28;20051;-60
2022/07/05 08:05:35;;;;;;;2.80;1.00;;;;;;;21.48;44.54;100433.19;4972048;28;20050;-61
2022/07/05 08:08:03;;;;;;;2.33;1.00;;;;;;;21.55;44.18;100440.63;4971902;28;20423;-62
2022/07/05 08:10:29;;;;;;;3.10;1.00;;;;;;;21.64;43.87;100434.41;4954621;28;20479;-64
2022/07/05 08:12:56;;;;;;;1.60;0.80;;;;;;;21.70;44.15;100436.53;4971703;28;20401;-61
2022/07/05 08:15:22;;;;;;;2.25;0.90;;;;;;;21.80;43.80;100431.19;4954497;28;20503;-63
2022/07/05 08:23:19;;;;;;;1.60;0.73;;;;;;;22.06;42.66;100432.38;4971616;28;20046;-60
2022/07/05 08:25:46;;;;;;;1.20;0.70;;;;;;;22.10;41.98;100439.97;4971764;28;20063;-62
2022/07/05 08:28:12;;;;;;;1.15;0.90;;;;;;;22.11;42.20;100435.47;4971859;28;20046;-61
2022/07/05 08:30:39;;;;;;;2.40;0.88;;;;;;;22.16;41.64;100429.69;4971892;28;20058;-61
2022/07/05 08:33:06;;;;;;;4.00;0.90;;;;;;;22.22;41.56;100431.75;4971673;28;20055;-63
2022/07/05 08:35:32;;;;;;;1.52;0.52;;;;;;;22.29;41.50;100437.38;4971503;28;20058;-61
2022/07/05 08:37:59;;;;;;;5.75;1.00;;;;;;;22.39;41.54;100438.19;4971561;28;20101;-61
2022/07/05 08:40:29;;;;;;;2.00;0.90;;;;;;;22.51;41.77;100431.63;4971155;28;20101;-61
2022/07/05 08:42:57;;;;;;;1.40;0.68;;;;;;;22.66;40.95;100431.16;4954636;28;20051;-61
2022/07/05 08:45:26;;;;;;;1.52;0.70;;;;;;;22.77;40.30;100447.03;4971566;28;20478;-61
2022/07/05 08:47:55;;;;;;;3.60;0.60;;;;;;;22.88;40.26;100442.47;4954616;28;20050;-61
2022/07/05 08:50:23;;;;;;;3.00;0.80;;;;;;;22.93;39.91;100440.16;4971229;28;20054;-60
2022/07/05 08:52:50;;;;;;;1.38;0.77;;;;;;;22.95;39.35;100438.16;4971532;28;20113;-62
2022/07/05 08:55:17;;;;;;;1.50;0.80;;;;;;;22.96;39.21;100441.69;4971257;28;20047;-64
2022/07/05 08:57:44;;;;;;;1.42;0.55;;;;;;;22.96;39.63;100444.38;4971396;28;20439;-61
2022/07/05 09:00:11;;;;;;;1.05;0.55;;;;;;;22.96;39.16;100439.88;4954006;28;20047;-61
2022/07/05 09:02:38;;;;;;;0.60;0.47;;;;;;;23.03;39.39;100443.63;4971520;28;20058;-61
2022/07/05 09:05:05;;;;;;;3.45;0.80;;;;;;;23.15;39.28;100443.41;4954108;28;20483;-64
2022/07/05 09:07:35;;;;;;;1.67;0.95;;;;;;;23.29;38.85;100442.84;4971291;28;20047;-61
2022/07/05 09:10:02;;;;;;;1.83;0.68;;;;;;;23.42;38.44;100436.28;4954032;28;20051;-60
2022/07/05 09:12:29;;;;;;;1.70;0.80;;;;;;;23.54;38.64;100444.94;4954185;28;20063;-61
2022/07/05 09:14:57;;;;;;;0.82;0.70;;;;;;;23.65;38.49;100443.84;4971488;28;20051;-62
2022/07/05 09:17:26;;;;;;;1.98;0.60;;;;;;;23.72;37.48;100439.53;4971314;28;20054;-61
2022/07/05 09:20:14;;;;;;;2.13;0.70;;;;;;;23.72;36.95;100447.59;4972951;28;20047;-61
2022/07/05 09:22:49;;;;;;;3.10;0.70;;;;;;;23.77;37.33;100455.19;4974902;28;20129;-61
2022/07/05 09:25:18;;;;;;;2.47;0.88;;;;;;;23.80;38.60;100452.16;4957439;28;20070;-61
2022/07/05 09:27:53;;;;;;;1.35;0.70;;;;;;;23.80;37.55;100447.66;4974770;28;20062;-61
2022/07/05 09:30:30;;;;;;;2.85;0.82;;;;;;;23.86;37.54;100453.38;4974814;28;20073;-61
2022/07/05 09:33:07;;;;;;;1.48;0.65;;;;;;;23.87;38.17;100447.88;4974894;28;20391;-61
2022/07/05 09:35:39;;;;;;;1.08;0.80;;;;;;;23.93;37.66;100436.47;4974691;28;20455;-61
2022/07/05 09:38:20;;;;;;;1.95;0.70;;;;;;;24.01;38.96;100438.38;4974449;28;20134;-61
2022/07/05 09:40:49;;;;;;;0.85;0.70;;;;;;;24.16;38.24;100429.72;4974307;28;20651;-62
2022/07/05 09:43:26;;;;;;;0.63;0.63;;;;;;;24.31;37.49;100438.03;4974603;28;20526;-62
2022/07/05 09:45:57;;;;;;;2.75;0.90;;;;;;;24.50;37.44;100445.03;4957197;28;20059;-63
2022/07/05 09:48:24;;;;;;;1.63;0.73;;;;;;;24.70;37.42;100447.44;4957312;28;20454;-61
2022/07/05 09:51:07;;;;;;;4.18;0.88;;;;;;;24.87;35.93;100452.88;4974353;28;20098;-63
2022/07/05 09:53:56;;;;;;;2.72;0.70;;;;;;;25.05;36.15;100444.69;4974060;28;20059;-63
2022/07/05 09:56:29;;;;;;;1.30;0.68;;;;;;;25.14;36.60;100441.00;4974203;28;20082;-61
2022/07/05 09:59:13;;;;;;;2.03;0.70;;;;;;;25.14;35.86;100442.84;4974111;28;20051;-62
2022/07/05 10:01:40;;;;;;;1.67;0.68;;;;;;;25.22;35.98;100451.78;4973765;28;20133;-61
2022/07/05 10:04:08;;;;;;;0.70;0.70;;;;;;;25.26;34.71;100463.06;4973972;28;20061;-62
2022/07/05 10:06:34;;;;;;;1.17;0.60;;;;;;;25.29;34.85;100456.50;4974194;28;20586;-62
2022/07/05 10:09:01;;;;;;;0.80;0.57;;;;;;;25.27;34.88;100456.69;4975556;28;20050;-60
2022/07/05 10:11:31;;;;;;;0.60;0.52;;;;;;;25.23;34.77;100464.22;4979941;28;20054;-62
2022/07/05 10:14:11;;;;;;;1.73;0.80;;;;;;;25.14;34.21;100467.94;4984774;28;20046;-60
2022/07/05 10:16:43;;;;;;;0.93;0.70;;;;;;;25.06;34.06;100467.91;4975076;28;20081;-61
2022/07/05 10:19:17;;;;;;;0.70;0.70;;;;;;;24.93;34.40;100466.53;4992779;28;20123;-63
2022/07/05 10:21:45;;;;;;;1.13;0.52;;;;;;;24.85;35.17;100459.28;4975307;28;20473;-59
2022/07/05 10:24:36;;;;;;;2.95;0.73;;;;;;;24.82;35.93;100454.19;4978192;28;20136;-62
2022/07/05 10:27:06;;;;;;;1.27;0.50;;;;;;;24.89;35.51;100450.91;4993365;28;20046;-63
2022/07/05 10:29:34;;;;;;;1.10;0.60;;;;;;;24.97;35.35;100457.13;4992725;28;20061;-62
2022/07/05 10:32:02;;;;;;;1.20;0.60;;;;;;;25.05;35.13;100459.00;4991777;28;20066;-61
2022/07/05 10:34:32;;;;;;;2.53;0.60;;;;;;;25.06;34.05;100462.53;4975713;28;20058;-60
2022/07/05 10:37:19;;;;;;;1.67;0.60;;;;;;;25.05;34.05;100461.69;4978375;28;20490;-63
2022/07/05 10:39:46;;;;;;;0.90;0.68;;;;;;;25.03;34.39;100458.31;4992772;28;20065;-61
2022/07/05 10:42:14;;;;;;;1.13;0.60;;;;;;;25.03;34.89;100452.94;4992564;28;20113;-60
2022/07/05 10:44:41;;;;;;;1.95;0.70;;;;;;;25.13;35.05;100449.25;4975661;28;20101;-60
2022/07/05 10:47:11;;;;;;;1.90;0.80;;;;;;;25.23;34.62;100447.25;4992677;28;20051;-61
2022/07/05 10:49:39;;;;;;;1.30;0.95;;;;;;;25.36;34.65;100441.34;4992397;28;20486;-61
2022/07/05 10:52:25;;;;;;;1.70;0.70;;;;;;;25.44;34.54;100448.56;4992984;28;20050;-61
2022/07/05 10:55:16;;;;;;;1.63;0.68;;;;;;;25.54;34.47;100449.25;4992577;28;20618;-62
2022/07/05 10:57:43;;;;;;;0.57;0.50;;;;;;;25.64;33.36;100449.09;4992300;28;20137;-61
2022/07/05 11:00:11;;;;;;;0.70;0.70;;;;;;;25.67;32.83;100447.94;4992663;28;20046;-60
2022/07/05 11:02:38;;;;;;;0.50;0.47;;;;;;;25.79;33.29;100443.84;4975066;28;20495;-62
2022/07/05 11:05:05;;;;;;;1.25;0.60;;;;;;;26.05;34.53;100440.09;4992549;28;20061;-61
2022/07/05 11:07:56;;;;;;;0.85;0.50;;;;;;;26.46;33.62;100436.44;4974882;28;20061;-63
2022/07/05 11:10:23;;;;;;;1.83;0.65;;;;;;;27.04;34.81;100432.59;4992057;28;20073;-60
2022/07/05 11:12:50;;;;;;;1.17;0.60;;;;;;;27.57;33.49;100437.22;4992557;28;20109;-62
2022/07/05 11:15:17;;;;;;;0.65;0.60;;;;;;;27.97;32.18;100432.44;4992302;28;20144;-60
2022/07/05 11:17:43;;;;;;;0.60;0.50;;;;;;;28.18;30.80;100436.28;4992224;28;20423;-60
2022/07/05 11:20:30;;;;;;;3.85;0.93;;;;;;;28.21;30.32;100433.22;4991989;28;20054;-60
2022/07/05 11:23:12;;;;;;;3.33;0.80;;;;;;;28.07;30.99;100428.66;4974741;28;20086;-61
2022/07/05 11:25:49;;;;;;;0.50;0.50;;;;;;;27.95;31.00;100434.50;4974792;28;20054;-61
2022/07/05 11:28:23;;;;;;;1.63;0.52;;;;;;;27.84;30.66;100445.78;4991856;28;20510;-62
2022/07/05 11:30:52;;;;;;;0.90;0.55;;;;;;;27.70;29.91;100437.47;4991785;28;20057;-60
2022/07/05 11:33:29;;;;;;;1.15;0.50;;;;;;;27.46;30.09;100430.41;4974172;28;20046;-63
2022/07/05 11:35:57;;;;;;;1.95;0.65;;;;;;;27.29;30.51;100429.72;4991597;28;20050;-60
2022/07/05 11:38:25;;;;;;;1.92;0.80;;;;;;;27.09;30.71;100427.47;5006576;28;20062;-61
2022/07/05 11:41:14;;;;;;;0.47;0.47;;;;;;;26.89;31.89;100427.94;4991762;28;20061;-60
2022/07/05 11:43:42;;;;;;;0.85;0.52;;;;;;;26.99;32.14;100422.31;4991438;28;20414;-61